sensor_id;sensor_type;location;lat;lon;timestamp;pressure;altitude;pressure_sealevel;temperature;humidity
42761;BME280;31672;47.638;19.026;2023-08-01T00:02:00;99551.75;;;16.20;80.99
42761;BME280;31672;47.638;19.026;2023-08-01T00:07:04;99547.88;;;16.16;81.63
42761;BME280;31672;47.638;19.026;2023-08-01T00:12:08;99550.59;;;16.10;82.55
42761;BME280;31672;47.638;19.026;2023-08-01T00:17:11;99550.44;;;16.04;82.74
42761;BME280;31672;47.638;19.026;2023-08-01T00:22:15;99565.97;;;15.96;83.57
42761;BME280;31672;47.638;19.026;2023-08-01T00:27:19;99550.16;;;15.88;84.02
42761;BME280;31672;47.638;19.026;2023-08-01T00:32:22;99554.91;;;15.86;84.44
42761;BME280;31672;47.638;19.026;2023-08-01T00:37:26;99544.44;;;15.84;84.66
42761;BME280;31672;47.638;19.026;2023-08-01T00:42:30;99546.94;;;15.79;84.92
42761;BME280;31672;47.638;19.026;2023-08-01T00:47:34;99531.91;;;15.78;85.35
42761;BME280;31672;47.638;19.026;2023-08-01T00:52:38;99531.50;;;15.74;85.94
42761;BME280;31672;47.638;19.026;2023-08-01T00:57:42;99521.84;;;15.73;86.11
42761;BME280;31672;47.638;19.026;2023-08-01T01:02:46;99516.69;;;15.72;86.26
42761;BME280;31672;47.638;19.026;2023-08-01T01:07:50;99515.50;;;15.68;86.44
42761;BME280;31672;47.638;19.026;2023-08-01T01:12:54;99520.25;;;15.66;87.05
42761;BME280;31672;47.638;19.026;2023-08-01T01:17:58;99527.88;;;15.62;87.03
42761;BME280;31672;47.638;19.026;2023-08-01T01:23:06;99512.66;;;15.56;87.58
42761;BME280;31672;47.638;19.026;2023-08-01T01:28:11;99509.97;;;15.56;87.96
42761;BME280;31672;47.638;19.026;2023-08-01T01:33:16;99504.09;;;15.47;88.49
42761;BME280;31672;47.638;19.026;2023-08-01T01:38:20;99505.31;;;15.45;88.78
42761;BME280;31672;47.638;19.026;2023-08-01T01:43:26;99497.50;;;15.43;89.77
42761;BME280;31672;47.638;19.026;2023-08-01T01:48:29;99495.66;;;15.44;90.49
42761;BME280;31672;47.638;19.026;2023-08-01T01:53:33;99489.69;;;15.42;90.63
42761;BME280;31672;47.638;19.026;2023-08-01T01:58:37;99488.22;;;15.46;91.00
42761;BME280;31672;47.638;19.026;2023-08-01T02:03:41;99482.25;;;15.44;90.90
42761;BME280;31672;47.638;19.026;2023-08-01T02:08:45;99477.13;;;15.42;90.97
42761;BME280;31672;47.638;19.026;2023-08-01T02:13:48;99476.72;;;15.39;91.65
42761;BME280;31672;47.638;19.026;2023-08-01T02:18:52;99478.19;;;15.35;91.56
42761;BME280;31672;47.638;19.026;2023-08-01T02:23:56;99465.91;;;15.27;92.60
42761;BME280;31672;47.638;19.026;2023-08-01T02:28:59;99461.81;;;15.24;92.74
42761;BME280;31672;47.638;19.026;2023-08-01T02:34:03;99458.91;;;15.26;93.30
42761;BME280;31672;47.638;19.026;2023-08-01T02:39:07;99452.56;;;15.20;93.39
42761;BME280;31672;47.638;19.026;2023-08-01T02:44:10;99461.81;;;15.24;94.02
42761;BME280;31672;47.638;19.026;2023-08-01T02:49:14;99454.59;;;15.25;94.50
42761;BME280;31672;47.638;19.026;2023-08-01T02:54:17;99458.09;;;15.25;94.91
42761;BME280;31672;47.638;19.026;2023-08-01T02:59:21;99458.50;;;15.22;95.05
42761;BME280;31672;47.638;19.026;2023-08-01T03:04:24;99457.50;;;15.23;95.07
42761;BME280;31672;47.638;19.026;2023-08-01T03:09:47;99454.59;;;15.25;94.68
42761;BME280;31672;47.638;19.026;2023-08-01T03:14:51;99452.72;;;15.25;95.04
42761;BME280;31672;47.638;19.026;2023-08-01T03:19:55;99454.81;;;15.23;95.02
42761;BME280;31672;47.638;19.026;2023-08-01T03:24:58;99448.88;;;15.15;95.37
42761;BME280;31672;47.638;19.026;2023-08-01T03:30:03;99435.16;;;15.05;95.94
42761;BME280;31672;47.638;19.026;2023-08-01T03:35:12;99441.31;;;15.05;96.38
42761;BME280;31672;47.638;19.026;2023-08-01T03:40:17;99437.81;;;15.05;97.11
42761;BME280;31672;47.638;19.026;2023-08-01T03:45:21;99430.44;;;15.07;97.88
42761;BME280;31672;47.638;19.026;2023-08-01T03:50:26;99442.50;;;15.16;98.41
42761;BME280;31672;47.638;19.026;2023-08-01T03:55:30;99443.66;;;15.26;99.99
42761;BME280;31672;47.638;19.026;2023-08-01T04:00:34;99438.22;;;15.40;100.00
42761;BME280;31672;47.638;19.026;2023-08-01T04:05:37;99435.59;;;15.58;100.00
42761;BME280;31672;47.638;19.026;2023-08-01T04:10:41;99443.06;;;15.81;100.00
42761;BME280;31672;47.638;19.026;2023-08-01T04:15:44;99431.13;;;16.02;100.00
42761;BME280;31672;47.638;19.026;2023-08-01T04:20:48;99425.59;;;16.15;99.09
42761;BME280;31672;47.638;19.026;2023-08-01T04:25:51;99423.44;;;16.24;97.95
42761;BME280;31672;47.638;19.026;2023-08-01T04:30:55;99424.56;;;16.35;97.28
42761;BME280;31672;47.638;19.026;2023-08-01T04:35:59;99422.63;;;16.42;96.64
42761;BME280;31672;47.638;19.026;2023-08-01T04:41:02;99427.47;;;16.51;96.34
42761;BME280;31672;47.638;19.026;2023-08-01T04:46:06;99412.34;;;16.57;96.22
42761;BME280;31672;47.638;19.026;2023-08-01T04:51:10;99411.13;;;16.71;96.21
42761;BME280;31672;47.638;19.026;2023-08-01T04:56:13;99407.91;;;16.81;96.07
42761;BME280;31672;47.638;19.026;2023-08-01T05:01:17;99406.69;;;16.95;95.42
42761;BME280;31672;47.638;19.026;2023-08-01T05:06:21;99398.91;;;17.05;94.03
42761;BME280;31672;47.638;19.026;2023-08-01T05:11:24;99409.66;;;17.17;93.58
42761;BME280;31672;47.638;19.026;2023-08-01T05:16:28;99405.81;;;17.25;93.02
42761;BME280;31672;47.638;19.026;2023-08-01T05:21:32;99405.59;;;17.38;92.84
42761;BME280;31672;47.638;19.026;2023-08-01T05:26:36;99410.19;;;17.49;92.37
42761;BME280;31672;47.638;19.026;2023-08-01T05:31:40;99415.56;;;17.61;91.66
42761;BME280;31672;47.638;19.026;2023-08-01T05:36:44;99413.50;;;17.75;91.43
42761;BME280;31672;47.638;19.026;2023-08-01T06:47:46;99382.28;;;19.90;81.16
42761;BME280;31672;47.638;19.026;2023-08-01T06:52:49;99375.59;;;20.15;79.37
42761;BME280;31672;47.638;19.026;2023-08-01T06:57:53;99374.69;;;20.48;79.08
42761;BME280;31672;47.638;19.026;2023-08-01T07:02:56;99358.25;;;20.76;77.78
42761;BME280;31672;47.638;19.026;2023-08-01T07:08:01;99353.44;;;21.10;75.64
42761;BME280;31672;47.638;19.026;2023-08-01T07:13:05;99351.78;;;21.36;73.97
42761;BME280;31672;47.638;19.026;2023-08-01T07:18:09;99354.66;;;21.62;74.16
42761;BME280;31672;47.638;19.026;2023-08-01T07:23:12;99344.84;;;21.93;72.57
42761;BME280;31672;47.638;19.026;2023-08-01T07:28:16;99340.16;;;22.26;70.91
42761;BME280;31672;47.638;19.026;2023-08-01T07:33:19;99333.19;;;22.55;68.75
42761;BME280;31672;47.638;19.026;2023-08-01T07:38:23;99329.47;;;22.87;67.79
42761;BME280;31672;47.638;19.026;2023-08-01T07:43:27;99323.50;;;23.26;66.47
42761;BME280;31672;47.638;19.026;2023-08-01T07:48:30;99317.81;;;23.47;64.71
42761;BME280;31672;47.638;19.026;2023-08-01T07:53:34;99305.59;;;23.65;64.55
42761;BME280;31672;47.638;19.026;2023-08-01T07:58:38;99295.75;;;23.90;63.84
42761;BME280;31672;47.638;19.026;2023-08-01T08:03:41;99286.69;;;24.15;62.86
42761;BME280;31672;47.638;19.026;2023-08-01T08:08:45;99283.03;;;24.40;59.60
42761;BME280;31672;47.638;19.026;2023-08-01T08:13:49;99282.97;;;24.55;58.92
42761;BME280;31672;47.638;19.026;2023-08-01T08:18:52;99278.72;;;24.78;58.28
42761;BME280;31672;47.638;19.026;2023-08-01T08:23:56;99273.88;;;25.04;56.44
42761;BME280;31672;47.638;19.026;2023-08-01T08:29:00;99281.09;;;25.19;55.91
42761;BME280;31672;47.638;19.026;2023-08-01T08:34:03;99267.06;;;25.35;56.89
42761;BME280;31672;47.638;19.026;2023-08-01T08:39:07;99262.47;;;25.60;54.70
42761;BME280;31672;47.638;19.026;2023-08-01T08:44:15;99255.28;;;25.69;52.92
42761;BME280;31672;47.638;19.026;2023-08-01T08:49:20;99255.34;;;25.88;53.31
42761;BME280;31672;47.638;19.026;2023-08-01T08:54:25;99246.03;;;26.13;52.31
42761;BME280;31672;47.638;19.026;2023-08-01T08:59:30;99245.31;;;26.26;51.87
42761;BME280;31672;47.638;19.026;2023-08-01T09:04:34;99245.63;;;26.44;50.78
42761;BME280;31672;47.638;19.026;2023-08-01T09:09:38;99231.88;;;26.54;50.28
42761;BME280;31672;47.638;19.026;2023-08-01T09:14:42;99227.09;;;26.78;49.68
42761;BME280;31672;47.638;19.026;2023-08-01T09:19:46;99210.78;;;26.92;49.39
42761;BME280;31672;47.638;19.026;2023-08-01T09:24:52;99207.13;;;27.15;48.75
42761;BME280;31672;47.638;19.026;2023-08-01T09:30:09;99192.19;;;27.27;46.70
42761;BME280;31672;47.638;19.026;2023-08-01T09:35:16;99182.78;;;27.33;45.47
42761;BME280;31672;47.638;19.026;2023-08-01T09:40:20;99181.47;;;27.30;44.07
42761;BME280;31672;47.638;19.026;2023-08-01T09:45:24;99176.03;;;27.30;42.96
42761;BME280;31672;47.638;19.026;2023-08-01T09:50:28;99161.47;;;27.48;45.04
42761;BME280;31672;47.638;19.026;2023-08-01T09:55:32;99164.88;;;27.68;43.24
42761;BME280;31672;47.638;19.026;2023-08-01T10:00:37;99151.81;;;27.92;44.47
42761;BME280;31672;47.638;19.026;2023-08-01T10:05:40;99141.78;;;28.24;43.98
42761;BME280;31672;47.638;19.026;2023-08-01T10:10:46;99135.97;;;28.39;42.65
42761;BME280;31672;47.638;19.026;2023-08-01T10:15:54;99133.97;;;28.53;41.75
42761;BME280;31672;47.638;19.026;2023-08-01T10:20:58;99125.13;;;28.79;41.26
42761;BME280;31672;47.638;19.026;2023-08-01T10:26:05;99122.34;;;29.01;39.71
42761;BME280;31672;47.638;19.026;2023-08-01T10:31:18;99125.72;;;28.98;37.78
42761;BME280;31672;47.638;19.026;2023-08-01T10:36:23;99115.72;;;28.94;37.67
42761;BME280;31672;47.638;19.026;2023-08-01T10:41:31;99119.50;;;29.15;38.67
42761;BME280;31672;47.638;19.026;2023-08-01T10:47:04;99109.38;;;29.16;38.21
42761;BME280;31672;47.638;19.026;2023-08-01T10:52:26;99107.59;;;29.20;37.52
42761;BME280;31672;47.638;19.026;2023-08-01T10:57:38;99088.97;;;29.30;38.12
42761;BME280;31672;47.638;19.026;2023-08-01T11:02:48;99087.97;;;29.18;38.26
42761;BME280;31672;47.638;19.026;2023-08-01T11:08:03;99086.13;;;28.96;38.69
42761;BME280;31672;47.638;19.026;2023-08-01T11:13:11;99084.75;;;28.85;39.60
42761;BME280;31672;47.638;19.026;2023-08-01T11:18:15;99075.09;;;28.78;40.67
42761;BME280;31672;47.638;19.026;2023-08-01T11:23:18;99071.06;;;28.76;39.82
42761;BME280;31672;47.638;19.026;2023-08-01T11:28:22;99070.06;;;28.63;39.82
42761;BME280;31672;47.638;19.026;2023-08-01T11:33:28;99054.44;;;28.55;40.95
42761;BME280;31672;47.638;19.026;2023-08-01T11:38:34;99048.69;;;28.34;39.40
42761;BME280;31672;47.638;19.026;2023-08-01T11:43:41;99042.50;;;28.28;38.16
42761;BME280;31672;47.638;19.026;2023-08-01T11:48:46;99024.72;;;28.31;38.79
42761;BME280;31672;47.638;19.026;2023-08-01T11:54:01;99020.16;;;28.49;38.56
42761;BME280;31672;47.638;19.026;2023-08-01T11:59:16;99011.00;;;28.53;38.25
42761;BME280;31672;47.638;19.026;2023-08-01T12:04:28;99008.25;;;28.45;38.36
42761;BME280;31672;47.638;19.026;2023-08-01T12:09:32;98990.06;;;28.40;40.04
42761;BME280;31672;47.638;19.026;2023-08-01T12:14:40;98994.47;;;28.27;39.28
42761;BME280;31672;47.638;19.026;2023-08-01T12:19:44;98989.19;;;28.31;39.95
42761;BME280;31672;47.638;19.026;2023-08-01T12:24:50;98970.81;;;28.23;38.76
42761;BME280;31672;47.638;19.026;2023-08-01T12:29:53;98968.53;;;28.16;39.03
42761;BME280;31672;47.638;19.026;2023-08-01T12:34:57;98962.41;;;28.11;38.21
42761;BME280;31672;47.638;19.026;2023-08-01T12:40:01;98960.25;;;27.99;38.07
42761;BME280;31672;47.638;19.026;2023-08-01T12:45:05;98944.31;;;27.92;38.35
42761;BME280;31672;47.638;19.026;2023-08-01T12:50:09;98949.75;;;27.84;38.33
42761;BME280;31672;47.638;19.026;2023-08-01T12:55:13;98950.19;;;27.77;38.08
42761;BME280;31672;47.638;19.026;2023-08-01T13:00:17;98944.53;;;27.73;39.05
42761;BME280;31672;47.638;19.026;2023-08-01T13:05:21;98930.09;;;27.73;38.89
42761;BME280;31672;47.638;19.026;2023-08-01T13:10:24;98930.63;;;27.84;39.92
42761;BME280;31672;47.638;19.026;2023-08-01T13:15:29;98925.97;;;27.84;38.91
42761;BME280;31672;47.638;19.026;2023-08-01T13:20:33;98916.22;;;27.92;39.83
42761;BME280;31672;47.638;19.026;2023-08-01T13:25:39;98919.28;;;27.99;39.20
42761;BME280;31672;47.638;19.026;2023-08-01T13:30:43;98917.72;;;28.07;39.60
42761;BME280;31672;47.638;19.026;2023-08-01T13:35:46;98901.34;;;28.07;38.27
42761;BME280;31672;47.638;19.026;2023-08-01T13:40:53;98892.84;;;28.08;37.49
42761;BME280;31672;47.638;19.026;2023-08-01T13:45:57;98885.66;;;28.21;38.13
42761;BME280;31672;47.638;19.026;2023-08-01T13:51:01;98886.09;;;28.45;39.18
42761;BME280;31672;47.638;19.026;2023-08-01T13:56:05;98884.66;;;28.57;38.76
42761;BME280;31672;47.638;19.026;2023-08-01T14:01:09;98885.28;;;28.53;37.76
42761;BME280;31672;47.638;19.026;2023-08-01T14:06:14;98869.88;;;28.49;38.45
42761;BME280;31672;47.638;19.026;2023-08-01T14:11:18;98876.63;;;28.51;37.67
42761;BME280;31672;47.638;19.026;2023-08-01T14:16:21;98861.22;;;28.56;38.85
42761;BME280;31672;47.638;19.026;2023-08-01T14:21:26;98847.56;;;28.82;38.38
42761;BME280;31672;47.638;19.026;2023-08-01T14:26:29;98832.41;;;29.36;38.24
42761;BME280;31672;47.638;19.026;2023-08-01T14:31:33;98820.91;;;29.77;37.40
42761;BME280;31672;47.638;19.026;2023-08-01T14:36:36;98822.56;;;29.70;36.07
42761;BME280;31672;47.638;19.026;2023-08-01T14:41:43;98814.88;;;29.46;36.05
42761;BME280;31672;47.638;19.026;2023-08-01T14:46:49;98812.94;;;29.38;37.54
42761;BME280;31672;47.638;19.026;2023-08-01T14:51:53;98801.06;;;29.25;36.85
42761;BME280;31672;47.638;19.026;2023-08-01T14:56:56;98796.59;;;29.12;37.48
42761;BME280;31672;47.638;19.026;2023-08-01T15:02:00;98799.31;;;29.12;38.76
42761;BME280;31672;47.638;19.026;2023-08-01T15:07:04;98800.28;;;28.90;38.53
42761;BME280;31672;47.638;19.026;2023-08-01T15:12:09;98802.03;;;28.60;40.84
42761;BME280;31672;47.638;19.026;2023-08-01T15:17:13;98806.47;;;28.21;42.40
42761;BME280;31672;47.638;19.026;2023-08-01T15:22:18;98807.63;;;27.80;44.21
42761;BME280;31672;47.638;19.026;2023-08-01T15:27:22;98807.72;;;27.44;45.43
42761;BME280;31672;47.638;19.026;2023-08-01T15:32:26;98815.56;;;27.14;47.56
42761;BME280;31672;47.638;19.026;2023-08-01T15:37:29;98828.84;;;26.71;48.54
42761;BME280;31672;47.638;19.026;2023-08-01T15:42:33;98845.44;;;26.20;49.15
42761;BME280;31672;47.638;19.026;2023-08-01T15:47:37;98861.38;;;25.66;48.97
42761;BME280;31672;47.638;19.026;2023-08-01T15:52:41;98866.28;;;24.99;49.12
42761;BME280;31672;47.638;19.026;2023-08-01T15:57:46;98881.75;;;24.42;49.67
42761;BME280;31672;47.638;19.026;2023-08-01T16:02:49;98898.53;;;23.91;51.81
42761;BME280;31672;47.638;19.026;2023-08-01T16:07:53;98905.47;;;23.39;55.89
42761;BME280;31672;47.638;19.026;2023-08-01T16:13:00;98925.31;;;22.85;59.78
42761;BME280;31672;47.638;19.026;2023-08-01T16:18:05;98938.00;;;22.30;60.21
42761;BME280;31672;47.638;19.026;2023-08-01T16:23:10;98955.38;;;21.78;60.36
42761;BME280;31672;47.638;19.026;2023-08-01T16:28:13;99001.03;;;21.38;62.62
42761;BME280;31672;47.638;19.026;2023-08-01T16:33:17;98999.81;;;20.99;65.09
42761;BME280;31672;47.638;19.026;2023-08-01T16:38:21;98985.66;;;20.66;67.22
42761;BME280;31672;47.638;19.026;2023-08-01T16:43:24;99006.50;;;20.39;68.95
42761;BME280;31672;47.638;19.026;2023-08-01T16:48:28;99002.84;;;20.13;70.12
42761;BME280;31672;47.638;19.026;2023-08-01T16:53:33;98996.22;;;19.93;71.82
42761;BME280;31672;47.638;19.026;2023-08-01T16:58:36;99004.13;;;19.73;75.48
42761;BME280;31672;47.638;19.026;2023-08-01T17:03:42;99014.06;;;19.40;80.30
42761;BME280;31672;47.638;19.026;2023-08-01T17:08:46;99012.53;;;19.01;83.38
42761;BME280;31672;47.638;19.026;2023-08-01T17:13:49;98995.53;;;18.73;85.59
42761;BME280;31672;47.638;19.026;2023-08-01T17:18:53;98992.78;;;18.51;87.69
42761;BME280;31672;47.638;19.026;2023-08-01T17:23:56;98994.78;;;18.39;89.39
42761;BME280;31672;47.638;19.026;2023-08-01T17:29:01;99021.69;;;18.22;89.99
42761;BME280;31672;47.638;19.026;2023-08-01T17:34:05;99008.34;;;18.10;91.39
42761;BME280;31672;47.638;19.026;2023-08-01T17:39:09;99007.59;;;17.98;91.75
42761;BME280;31672;47.638;19.026;2023-08-01T17:44:13;99035.06;;;17.83;92.93
42761;BME280;31672;47.638;19.026;2023-08-01T17:49:17;99053.81;;;17.66;94.79
42761;BME280;31672;47.638;19.026;2023-08-01T17:54:21;99072.00;;;17.48;97.05
42761;BME280;31672;47.638;19.026;2023-08-01T17:59:26;99073.34;;;17.33;99.26
42761;BME280;31672;47.638;19.026;2023-08-01T18:04:30;99078.75;;;17.22;99.44
42761;BME280;31672;47.638;19.026;2023-08-01T18:09:34;99095.34;;;17.07;100.00
42761;BME280;31672;47.638;19.026;2023-08-01T18:14:38;99096.69;;;16.93;100.00
42761;BME280;31672;47.638;19.026;2023-08-01T18:19:41;99107.19;;;16.82;100.00
42761;BME280;31672;47.638;19.026;2023-08-01T18:24:45;99113.97;;;16.73;100.00
42761;BME280;31672;47.638;19.026;2023-08-01T18:29:50;99123.75;;;16.68;100.00
42761;BME280;31672;47.638;19.026;2023-08-01T18:34:53;99153.31;;;16.61;100.00
42761;BME280;31672;47.638;19.026;2023-08-01T18:40:03;99168.97;;;16.52;100.00
42761;BME280;31672;47.638;19.026;2023-08-01T18:45:08;99190.97;;;16.43;100.00
42761;BME280;31672;47.638;19.026;2023-08-01T18:50:11;99176.28;;;16.33;100.00
42761;BME280;31672;47.638;19.026;2023-08-01T18:55:18;99163.66;;;16.22;100.00
42761;BME280;31672;47.638;19.026;2023-08-01T19:00:22;99164.56;;;16.16;100.00
42761;BME280;31672;47.638;19.026;2023-08-01T19:05:26;99169.00;;;16.11;100.00
42761;BME280;31672;47.638;19.026;2023-08-01T19:10:31;99167.59;;;16.08;100.00
42761;BME280;31672;47.638;19.026;2023-08-01T19:15:34;99159.75;;;16.06;100.00
42761;BME280;31672;47.638;19.026;2023-08-01T19:20:38;99157.91;;;16.07;100.00
42761;BME280;31672;47.638;19.026;2023-08-01T19:25:43;99140.78;;;16.08;100.00
42761;BME280;31672;47.638;19.026;2023-08-01T19:30:47;99125.19;;;16.17;100.00
42761;BME280;31672;47.638;19.026;2023-08-01T19:35:51;99111.44;;;16.25;100.00
42761;BME280;31672;47.638;19.026;2023-08-01T19:41:00;99104.94;;;16.32;100.00
42761;BME280;31672;47.638;19.026;2023-08-01T19:46:13;99114.13;;;16.37;100.00
42761;BME280;31672;47.638;19.026;2023-08-01T19:51:18;99116.94;;;16.42;100.00
42761;BME280;31672;47.638;19.026;2023-08-01T19:56:22;99124.28;;;16.46;100.00
42761;BME280;31672;47.638;19.026;2023-08-01T20:01:25;99133.03;;;16.53;100.00
42761;BME280;31672;47.638;19.026;2023-08-01T20:06:29;99130.72;;;16.57;100.00
42761;BME280;31672;47.638;19.026;2023-08-01T20:11:34;99115.22;;;16.59;100.00
42761;BME280;31672;47.638;19.026;2023-08-01T20:16:37;99099.69;;;16.61;100.00
42761;BME280;31672;47.638;19.026;2023-08-01T20:21:42;99101.44;;;16.67;100.00
42761;BME280;31672;47.638;19.026;2023-08-01T20:26:46;99083.03;;;16.71;100.00
42761;BME280;31672;47.638;19.026;2023-08-01T20:31:52;99075.47;;;16.68;100.00
42761;BME280;31672;47.638;19.026;2023-08-01T20:36:56;99039.75;;;16.67;100.00
42761;BME280;31672;47.638;19.026;2023-08-01T20:41:59;99047.59;;;16.57;100.00
42761;BME280;31672;47.638;19.026;2023-08-01T20:47:03;99044.31;;;16.55;100.00
42761;BME280;31672;47.638;19.026;2023-08-01T20:52:07;99033.38;;;16.45;100.00
42761;BME280;31672;47.638;19.026;2023-08-01T20:57:10;99063.31;;;16.42;100.00
42761;BME280;31672;47.638;19.026;2023-08-01T21:02:14;99106.91;;;16.25;100.00
42761;BME280;31672;47.638;19.026;2023-08-01T21:07:17;99117.38;;;16.15;100.00
42761;BME280;31672;47.638;19.026;2023-08-01T21:12:23;99115.63;;;16.09;100.00
42761;BME280;31672;47.638;19.026;2023-08-01T21:17:26;99134.81;;;16.06;100.00
42761;BME280;31672;47.638;19.026;2023-08-01T21:22:30;99148.69;;;16.03;100.00
42761;BME280;31672;47.638;19.026;2023-08-01T21:27:34;99159.66;;;16.01;100.00
42761;BME280;31672;47.638;19.026;2023-08-01T21:32:38;99124.22;;;15.99;100.00
42761;BME280;31672;47.638;19.026;2023-08-01T21:37:42;99130.38;;;16.00;100.00
42761;BME280;31672;47.638;19.026;2023-08-01T21:42:46;99113.88;;;16.03;100.00
42761;BME280;31672;47.638;19.026;2023-08-01T21:47:51;99149.28;;;16.05;100.00
42761;BME280;31672;47.638;19.026;2023-08-01T21:52:55;99196.47;;;16.06;100.00
42761;BME280;31672;47.638;19.026;2023-08-01T21:57:59;99235.16;;;16.10;100.00
42761;BME280;31672;47.638;19.026;2023-08-01T22:03:03;99210.81;;;16.12;100.00
42761;BME280;31672;47.638;19.026;2023-08-01T22:08:08;99202.09;;;16.16;100.00
42761;BME280;31672;47.638;19.026;2023-08-01T22:13:11;99202.09;;;16.16;100.00
42761;BME280;31672;47.638;19.026;2023-08-01T22:18:15;99182.28;;;16.17;100.00
42761;BME280;31672;47.638;19.026;2023-08-01T22:23:28;99188.94;;;16.15;100.00
42761;BME280;31672;47.638;19.026;2023-08-01T22:28:33;99182.28;;;16.17;100.00
42761;BME280;31672;47.638;19.026;2023-08-01T22:33:36;99166.69;;;16.14;100.00
42761;BME280;31672;47.638;19.026;2023-08-01T22:38:40;99160.03;;;16.17;100.00
42761;BME280;31672;47.638;19.026;2023-08-01T22:43:46;99157.94;;;16.19;100.00
42761;BME280;31672;47.638;19.026;2023-08-01T22:48:51;99147.94;;;16.26;100.00
42761;BME280;31672;47.638;19.026;2023-08-01T22:53:55;99166.00;;;16.30;100.00
42761;BME280;31672;47.638;19.026;2023-08-01T22:58:59;99172.53;;;16.35;100.00
42761;BME280;31672;47.638;19.026;2023-08-01T23:04:03;99154.16;;;16.38;100.00
42761;BME280;31672;47.638;19.026;2023-08-01T23:09:07;99152.84;;;16.41;100.00
42761;BME280;31672;47.638;19.026;2023-08-01T23:14:10;99159.72;;;16.37;100.00
42761;BME280;31672;47.638;19.026;2023-08-01T23:19:14;99158.56;;;16.32;100.00
42761;BME280;31672;47.638;19.026;2023-08-01T23:24:19;99167.06;;;16.29;100.00
42761;BME280;31672;47.638;19.026;2023-08-01T23:29:22;99154.13;;;16.26;100.00
42761;BME280;31672;47.638;19.026;2023-08-01T23:34:26;99167.06;;;16.29;100.00
42761;BME280;31672;47.638;19.026;2023-08-01T23:39:30;99175.56;;;16.26;100.00
42761;BME280;31672;47.638;19.026;2023-08-01T23:44:34;99190.03;;;16.25;100.00
42761;BME280;31672;47.638;19.026;2023-08-01T23:49:38;99195.00;;;16.22;100.00
42761;BME280;31672;47.638;19.026;2023-08-01T23:54:41;99183.81;;;16.25;100.00
42761;BME280;31672;47.638;19.026;2023-08-01T23:59:45;99199.78;;;16.20;100.00
